sensor_id;sensor_type;location;lat;lon;timestamp;P1;durP1;ratioP1;P2;durP2;ratioP2
33696;SDS011;20031;43.416;23.232;2023-07-02T00:02:18;9.32;;;3.05;;
33696;SDS011;20031;43.416;23.232;2023-07-02T00:04:47;8.77;;;2.70;;
33696;SDS011;20031;43.416;23.232;2023-07-02T00:07:16;7.38;;;2.80;;
33696;SDS011;20031;43.416;23.232;2023-07-02T00:09:47;11.38;;;3.10;;
33696;SDS011;20031;43.416;23.232;2023-07-02T00:12:16;12.70;;;3.15;;
33696;SDS011;20031;43.416;23.232;2023-07-02T00:14:44;9.85;;;2.88;;
33696;SDS011;20031;43.416;23.232;2023-07-02T00:17:13;10.55;;;2.95;;
33696;SDS011;20031;43.416;23.232;2023-07-02T00:19:43;10.25;;;3.00;;
33696;SDS011;20031;43.416;23.232;2023-07-02T00:22:14;13.93;;;3.20;;
33696;SDS011;20031;43.416;23.232;2023-07-02T00:24:44;11.40;;;3.10;;
33696;SDS011;20031;43.416;23.232;2023-07-02T00:27:12;7.97;;;2.88;;
33696;SDS011;20031;43.416;23.232;2023-07-02T00:29:41;15.90;;;3.10;;
33696;SDS011;20031;43.416;23.232;2023-07-02T00:32:11;13.82;;;3.28;;
33696;SDS011;20031;43.416;23.232;2023-07-02T00:34:41;11.70;;;3.30;;
33696;SDS011;20031;43.416;23.232;2023-07-02T00:37:09;14.02;;;3.28;;
33696;SDS011;20031;43.416;23.232;2023-07-02T00:39:37;8.73;;;3.42;;
33696;SDS011;20031;43.416;23.232;2023-07-02T00:42:06;6.68;;;2.75;;
33696;SDS011;20031;43.416;23.232;2023-07-02T00:44:37;13.35;;;3.90;;
33696;SDS011;20031;43.416;23.232;2023-07-02T00:47:08;8.98;;;3.13;;
33696;SDS011;20031;43.416;23.232;2023-07-02T00:49:41;12.05;;;3.28;;
33696;SDS011;20031;43.416;23.232;2023-07-02T00:52:11;14.73;;;3.72;;
33696;SDS011;20031;43.416;23.232;2023-07-02T00:54:41;8.70;;;3.40;;
33696;SDS011;20031;43.416;23.232;2023-07-02T00:57:10;10.95;;;3.30;;
33696;SDS011;20031;43.416;23.232;2023-07-02T00:59:39;13.85;;;3.05;;
33696;SDS011;20031;43.416;23.232;2023-07-02T01:02:10;9.15;;;3.05;;
33696;SDS011;20031;43.416;23.232;2023-07-02T01:04:39;11.40;;;3.03;;
33696;SDS011;20031;43.416;23.232;2023-07-02T01:07:16;9.52;;;3.20;;
33696;SDS011;20031;43.416;23.232;2023-07-02T01:09:49;12.40;;;3.80;;
33696;SDS011;20031;43.416;23.232;2023-07-02T01:12:21;16.20;;;3.40;;
33696;SDS011;20031;43.416;23.232;2023-07-02T01:14:54;11.07;;;3.00;;
33696;SDS011;20031;43.416;23.232;2023-07-02T01:17:27;12.48;;;3.10;;
33696;SDS011;20031;43.416;23.232;2023-07-02T01:20:09;13.32;;;3.28;;
33696;SDS011;20031;43.416;23.232;2023-07-02T01:22:39;11.57;;;3.63;;
33696;SDS011;20031;43.416;23.232;2023-07-02T01:25:09;11.52;;;3.50;;
33696;SDS011;20031;43.416;23.232;2023-07-02T01:27:41;12.07;;;3.20;;
33696;SDS011;20031;43.416;23.232;2023-07-02T01:30:10;11.45;;;3.40;;
33696;SDS011;20031;43.416;23.232;2023-07-02T01:32:38;14.68;;;3.47;;
33696;SDS011;20031;43.416;23.232;2023-07-02T01:35:05;11.25;;;3.60;;
33696;SDS011;20031;43.416;23.232;2023-07-02T01:37:33;10.77;;;3.40;;
33696;SDS011;20031;43.416;23.232;2023-07-02T01:40:06;10.88;;;3.30;;
33696;SDS011;20031;43.416;23.232;2023-07-02T01:42:38;13.48;;;3.55;;
33696;SDS011;20031;43.416;23.232;2023-07-02T01:45:07;11.05;;;3.50;;
33696;SDS011;20031;43.416;23.232;2023-07-02T01:47:38;9.00;;;3.22;;
33696;SDS011;20031;43.416;23.232;2023-07-02T01:50:08;12.23;;;3.40;;
33696;SDS011;20031;43.416;23.232;2023-07-02T01:52:38;12.75;;;3.33;;
33696;SDS011;20031;43.416;23.232;2023-07-02T01:55:08;10.45;;;3.30;;
33696;SDS011;20031;43.416;23.232;2023-07-02T01:57:38;11.00;;;3.30;;
33696;SDS011;20031;43.416;23.232;2023-07-02T02:00:08;11.48;;;3.22;;
33696;SDS011;20031;43.416;23.232;2023-07-02T02:02:39;13.77;;;3.10;;
33696;SDS011;20031;43.416;23.232;2023-07-02T02:05:10;13.95;;;3.60;;
33696;SDS011;20031;43.416;23.232;2023-07-02T02:07:41;11.43;;;3.38;;
33696;SDS011;20031;43.416;23.232;2023-07-02T02:10:11;17.73;;;3.42;;
33696;SDS011;20031;43.416;23.232;2023-07-02T02:12:40;14.10;;;3.50;;
33696;SDS011;20031;43.416;23.232;2023-07-02T02:15:10;10.13;;;3.38;;
33696;SDS011;20031;43.416;23.232;2023-07-02T02:17:40;13.80;;;3.80;;
33696;SDS011;20031;43.416;23.232;2023-07-02T02:20:13;8.65;;;3.20;;
33696;SDS011;20031;43.416;23.232;2023-07-02T02:22:42;14.57;;;3.47;;
33696;SDS011;20031;43.416;23.232;2023-07-02T02:25:09;12.45;;;3.10;;
33696;SDS011;20031;43.416;23.232;2023-07-02T02:27:38;12.27;;;3.47;;
33696;SDS011;20031;43.416;23.232;2023-07-02T02:30:08;23.08;;;4.53;;
33696;SDS011;20031;43.416;23.232;2023-07-02T02:32:34;17.23;;;4.07;;
33696;SDS011;20031;43.416;23.232;2023-07-02T02:34:59;10.80;;;3.58;;
33696;SDS011;20031;43.416;23.232;2023-07-02T02:37:24;16.08;;;4.10;;
33696;SDS011;20031;43.416;23.232;2023-07-02T02:39:50;15.70;;;4.85;;
33696;SDS011;20031;43.416;23.232;2023-07-02T02:42:15;16.05;;;3.75;;
33696;SDS011;20031;43.416;23.232;2023-07-02T02:44:41;15.07;;;3.90;;
33696;SDS011;20031;43.416;23.232;2023-07-02T02:47:06;15.68;;;3.90;;
33696;SDS011;20031;43.416;23.232;2023-07-02T02:49:32;14.93;;;3.97;;
33696;SDS011;20031;43.416;23.232;2023-07-02T02:51:57;24.50;;;4.32;;
33696;SDS011;20031;43.416;23.232;2023-07-02T02:54:23;17.60;;;4.30;;
33696;SDS011;20031;43.416;23.232;2023-07-02T02:56:48;16.80;;;4.22;;
33696;SDS011;20031;43.416;23.232;2023-07-02T02:59:14;12.65;;;3.55;;
33696;SDS011;20031;43.416;23.232;2023-07-02T03:01:39;9.13;;;3.63;;
33696;SDS011;20031;43.416;23.232;2023-07-02T03:04:04;12.88;;;3.67;;
33696;SDS011;20031;43.416;23.232;2023-07-02T03:06:33;9.38;;;3.65;;
33696;SDS011;20031;43.416;23.232;2023-07-02T03:08:58;16.67;;;3.70;;
33696;SDS011;20031;43.416;23.232;2023-07-02T03:11:24;12.90;;;4.00;;
33696;SDS011;20031;43.416;23.232;2023-07-02T03:13:50;14.30;;;4.07;;
33696;SDS011;20031;43.416;23.232;2023-07-02T03:16:15;18.58;;;3.78;;
33696;SDS011;20031;43.416;23.232;2023-07-02T03:18:40;14.90;;;3.55;;
33696;SDS011;20031;43.416;23.232;2023-07-02T03:21:06;17.80;;;4.03;;
33696;SDS011;20031;43.416;23.232;2023-07-02T03:23:31;10.20;;;3.70;;
33696;SDS011;20031;43.416;23.232;2023-07-02T03:25:57;8.13;;;3.80;;
33696;SDS011;20031;43.416;23.232;2023-07-02T03:28:22;12.13;;;3.53;;
33696;SDS011;20031;43.416;23.232;2023-07-02T03:30:47;17.10;;;3.72;;
33696;SDS011;20031;43.416;23.232;2023-07-02T03:33:13;9.68;;;3.53;;
33696;SDS011;20031;43.416;23.232;2023-07-02T03:35:38;15.00;;;3.67;;
33696;SDS011;20031;43.416;23.232;2023-07-02T03:38:04;14.73;;;3.50;;
33696;SDS011;20031;43.416;23.232;2023-07-02T03:40:31;16.52;;;3.85;;
33696;SDS011;20031;43.416;23.232;2023-07-02T03:42:56;12.07;;;4.10;;
33696;SDS011;20031;43.416;23.232;2023-07-02T03:45:22;11.45;;;4.18;;
33696;SDS011;20031;43.416;23.232;2023-07-02T03:47:47;9.25;;;4.15;;
33696;SDS011;20031;43.416;23.232;2023-07-02T03:50:13;11.05;;;4.18;;
33696;SDS011;20031;43.416;23.232;2023-07-02T03:52:38;13.02;;;4.05;;
33696;SDS011;20031;43.416;23.232;2023-07-02T03:55:04;17.55;;;4.63;;
33696;SDS011;20031;43.416;23.232;2023-07-02T03:57:29;13.43;;;4.43;;
33696;SDS011;20031;43.416;23.232;2023-07-02T03:59:55;10.45;;;4.78;;
33696;SDS011;20031;43.416;23.232;2023-07-02T04:02:21;15.07;;;4.28;;
33696;SDS011;20031;43.416;23.232;2023-07-02T04:04:46;11.52;;;4.07;;
33696;SDS011;20031;43.416;23.232;2023-07-02T04:07:11;8.90;;;4.25;;
33696;SDS011;20031;43.416;23.232;2023-07-02T04:09:37;11.27;;;4.40;;
33696;SDS011;20031;43.416;23.232;2023-07-02T04:12:03;11.60;;;4.88;;
33696;SDS011;20031;43.416;23.232;2023-07-02T04:14:28;14.93;;;4.85;;
33696;SDS011;20031;43.416;23.232;2023-07-02T04:16:54;15.18;;;5.30;;
33696;SDS011;20031;43.416;23.232;2023-07-02T04:19:19;14.85;;;4.90;;
33696;SDS011;20031;43.416;23.232;2023-07-02T04:21:45;14.18;;;5.18;;
33696;SDS011;20031;43.416;23.232;2023-07-02T04:24:10;18.88;;;5.32;;
33696;SDS011;20031;43.416;23.232;2023-07-02T04:26:36;10.70;;;5.30;;
33696;SDS011;20031;43.416;23.232;2023-07-02T04:29:01;14.95;;;5.70;;
33696;SDS011;20031;43.416;23.232;2023-07-02T04:31:27;14.13;;;5.65;;
33696;SDS011;20031;43.416;23.232;2023-07-02T04:33:53;10.88;;;5.32;;
33696;SDS011;20031;43.416;23.232;2023-07-02T04:36:18;10.88;;;5.22;;
33696;SDS011;20031;43.416;23.232;2023-07-02T04:38:44;17.45;;;5.50;;
33696;SDS011;20031;43.416;23.232;2023-07-02T04:41:09;11.88;;;5.05;;
33696;SDS011;20031;43.416;23.232;2023-07-02T04:43:35;16.00;;;5.00;;
33696;SDS011;20031;43.416;23.232;2023-07-02T04:46:01;12.20;;;4.65;;
33696;SDS011;20031;43.416;23.232;2023-07-02T04:48:27;15.10;;;5.00;;
33696;SDS011;20031;43.416;23.232;2023-07-02T04:50:53;17.52;;;5.20;;
33696;SDS011;20031;43.416;23.232;2023-07-02T04:53:18;16.10;;;4.97;;
33696;SDS011;20031;43.416;23.232;2023-07-02T04:55:44;14.30;;;4.95;;
33696;SDS011;20031;43.416;23.232;2023-07-02T04:58:09;17.00;;;5.82;;
33696;SDS011;20031;43.416;23.232;2023-07-02T05:00:35;18.02;;;5.43;;
33696;SDS011;20031;43.416;23.232;2023-07-02T05:03:00;14.98;;;5.82;;
33696;SDS011;20031;43.416;23.232;2023-07-02T05:05:25;14.38;;;5.20;;
33696;SDS011;20031;43.416;23.232;2023-07-02T05:07:51;11.77;;;6.05;;
33696;SDS011;20031;43.416;23.232;2023-07-02T05:10:16;16.52;;;6.00;;
33696;SDS011;20031;43.416;23.232;2023-07-02T05:12:42;12.32;;;6.03;;
33696;SDS011;20031;43.416;23.232;2023-07-02T05:15:07;14.52;;;6.35;;
33696;SDS011;20031;43.416;23.232;2023-07-02T05:17:33;12.90;;;6.25;;
33696;SDS011;20031;43.416;23.232;2023-07-02T05:20:01;12.73;;;6.57;;
33696;SDS011;20031;43.416;23.232;2023-07-02T05:22:28;16.02;;;5.90;;
33696;SDS011;20031;43.416;23.232;2023-07-02T05:24:53;13.07;;;5.68;;
33696;SDS011;20031;43.416;23.232;2023-07-02T05:27:19;14.27;;;6.05;;
33696;SDS011;20031;43.416;23.232;2023-07-02T05:29:44;13.02;;;6.07;;
33696;SDS011;20031;43.416;23.232;2023-07-02T05:32:10;11.32;;;6.50;;
33696;SDS011;20031;43.416;23.232;2023-07-02T05:34:35;13.57;;;6.18;;
33696;SDS011;20031;43.416;23.232;2023-07-02T05:37:01;15.75;;;6.20;;
33696;SDS011;20031;43.416;23.232;2023-07-02T05:39:26;11.68;;;6.07;;
33696;SDS011;20031;43.416;23.232;2023-07-02T05:41:52;13.57;;;6.57;;
33696;SDS011;20031;43.416;23.232;2023-07-02T05:44:17;11.10;;;6.20;;
33696;SDS011;20031;43.416;23.232;2023-07-02T05:46:42;16.05;;;6.20;;
33696;SDS011;20031;43.416;23.232;2023-07-02T05:49:08;10.80;;;6.35;;
33696;SDS011;20031;43.416;23.232;2023-07-02T05:51:33;18.90;;;6.88;;
33696;SDS011;20031;43.416;23.232;2023-07-02T05:53:59;15.10;;;6.53;;
33696;SDS011;20031;43.416;23.232;2023-07-02T05:56:24;15.35;;;6.63;;
33696;SDS011;20031;43.416;23.232;2023-07-02T05:58:50;19.60;;;7.47;;
33696;SDS011;20031;43.416;23.232;2023-07-02T06:01:15;11.57;;;6.30;;
33696;SDS011;20031;43.416;23.232;2023-07-02T06:03:41;17.48;;;7.30;;
33696;SDS011;20031;43.416;23.232;2023-07-02T06:06:08;15.38;;;6.30;;
33696;SDS011;20031;43.416;23.232;2023-07-02T06:08:33;15.00;;;6.80;;
33696;SDS011;20031;43.416;23.232;2023-07-02T06:10:59;21.25;;;6.60;;
33696;SDS011;20031;43.416;23.232;2023-07-02T06:13:25;21.33;;;6.85;;
33696;SDS011;20031;43.416;23.232;2023-07-02T06:15:50;21.15;;;6.85;;
33696;SDS011;20031;43.416;23.232;2023-07-02T06:18:16;21.38;;;6.60;;
33696;SDS011;20031;43.416;23.232;2023-07-02T06:20:42;24.20;;;7.32;;
33696;SDS011;20031;43.416;23.232;2023-07-02T06:23:08;14.73;;;6.88;;
33696;SDS011;20031;43.416;23.232;2023-07-02T06:25:33;15.65;;;7.03;;
33696;SDS011;20031;43.416;23.232;2023-07-02T06:27:59;27.17;;;7.85;;
33696;SDS011;20031;43.416;23.232;2023-07-02T06:30:25;24.83;;;8.63;;
33696;SDS011;20031;43.416;23.232;2023-07-02T06:32:50;18.42;;;7.55;;
33696;SDS011;20031;43.416;23.232;2023-07-02T06:35:16;13.32;;;7.45;;
33696;SDS011;20031;43.416;23.232;2023-07-02T06:37:41;18.10;;;7.55;;
33696;SDS011;20031;43.416;23.232;2023-07-02T06:40:07;13.10;;;7.28;;
33696;SDS011;20031;43.416;23.232;2023-07-02T06:42:33;17.05;;;7.20;;
33696;SDS011;20031;43.416;23.232;2023-07-02T06:45:00;23.17;;;7.60;;
33696;SDS011;20031;43.416;23.232;2023-07-02T06:47:26;18.92;;;7.28;;
33696;SDS011;20031;43.416;23.232;2023-07-02T06:49:52;19.83;;;7.55;;
33696;SDS011;20031;43.416;23.232;2023-07-02T06:52:17;18.10;;;7.63;;
33696;SDS011;20031;43.416;23.232;2023-07-02T06:54:43;17.92;;;6.80;;
33696;SDS011;20031;43.416;23.232;2023-07-02T06:57:08;19.33;;;7.60;;
33696;SDS011;20031;43.416;23.232;2023-07-02T06:59:34;14.77;;;8.10;;
33696;SDS011;20031;43.416;23.232;2023-07-02T07:01:59;15.57;;;8.00;;
33696;SDS011;20031;43.416;23.232;2023-07-02T07:04:25;16.73;;;7.75;;
33696;SDS011;20031;43.416;23.232;2023-07-02T07:06:50;18.63;;;7.88;;
33696;SDS011;20031;43.416;23.232;2023-07-02T07:09:15;16.80;;;7.80;;
33696;SDS011;20031;43.416;23.232;2023-07-02T07:11:43;18.83;;;7.80;;
33696;SDS011;20031;43.416;23.232;2023-07-02T07:14:08;14.23;;;7.47;;
33696;SDS011;20031;43.416;23.232;2023-07-02T07:16:33;15.35;;;6.75;;
33696;SDS011;20031;43.416;23.232;2023-07-02T07:18:59;14.52;;;6.63;;
33696;SDS011;20031;43.416;23.232;2023-07-02T07:21:25;16.20;;;6.93;;
33696;SDS011;20031;43.416;23.232;2023-07-02T07:23:51;14.70;;;6.78;;
33696;SDS011;20031;43.416;23.232;2023-07-02T07:26:16;13.93;;;6.95;;
33696;SDS011;20031;43.416;23.232;2023-07-02T07:28:42;16.52;;;6.45;;
33696;SDS011;20031;43.416;23.232;2023-07-02T07:31:07;10.35;;;6.28;;
33696;SDS011;20031;43.416;23.232;2023-07-02T07:33:33;12.20;;;6.00;;
33696;SDS011;20031;43.416;23.232;2023-07-02T07:35:58;17.73;;;6.88;;
33696;SDS011;20031;43.416;23.232;2023-07-02T07:38:24;10.90;;;6.30;;
33696;SDS011;20031;43.416;23.232;2023-07-02T07:40:51;11.88;;;6.65;;
33696;SDS011;20031;43.416;23.232;2023-07-02T07:43:16;17.13;;;6.43;;
33696;SDS011;20031;43.416;23.232;2023-07-02T07:45:42;17.08;;;6.95;;
33696;SDS011;20031;43.416;23.232;2023-07-02T07:48:08;16.00;;;7.38;;
33696;SDS011;20031;43.416;23.232;2023-07-02T07:50:34;14.80;;;6.85;;
33696;SDS011;20031;43.416;23.232;2023-07-02T07:52:59;13.70;;;7.22;;
33696;SDS011;20031;43.416;23.232;2023-07-02T07:55:25;15.27;;;7.28;;
33696;SDS011;20031;43.416;23.232;2023-07-02T07:57:50;13.85;;;8.18;;
33696;SDS011;20031;43.416;23.232;2023-07-02T08:00:16;14.27;;;7.85;;
33696;SDS011;20031;43.416;23.232;2023-07-02T08:02:42;16.25;;;8.82;;
33696;SDS011;20031;43.416;23.232;2023-07-02T08:05:08;15.95;;;8.45;;
33696;SDS011;20031;43.416;23.232;2023-07-02T08:07:34;18.15;;;8.02;;
33696;SDS011;20031;43.416;23.232;2023-07-02T08:10:00;14.68;;;8.35;;
33696;SDS011;20031;43.416;23.232;2023-07-02T08:12:27;17.38;;;8.02;;
33696;SDS011;20031;43.416;23.232;2023-07-02T08:14:54;20.08;;;7.82;;
33696;SDS011;20031;43.416;23.232;2023-07-02T08:17:20;16.27;;;7.25;;
33696;SDS011;20031;43.416;23.232;2023-07-02T08:19:46;16.67;;;7.97;;
33696;SDS011;20031;43.416;23.232;2023-07-02T08:22:12;11.73;;;6.38;;
33696;SDS011;20031;43.416;23.232;2023-07-02T08:24:37;11.98;;;7.35;;
33696;SDS011;20031;43.416;23.232;2023-07-02T08:27:03;19.73;;;7.28;;
33696;SDS011;20031;43.416;23.232;2023-07-02T08:29:32;12.82;;;7.15;;
33696;SDS011;20031;43.416;23.232;2023-07-02T08:31:58;15.60;;;6.85;;
33696;SDS011;20031;43.416;23.232;2023-07-02T08:34:23;20.92;;;7.13;;
33696;SDS011;20031;43.416;23.232;2023-07-02T08:36:49;13.93;;;6.75;;
33696;SDS011;20031;43.416;23.232;2023-07-02T08:39:16;10.15;;;6.20;;
33696;SDS011;20031;43.416;23.232;2023-07-02T08:41:43;13.93;;;6.45;;
33696;SDS011;20031;43.416;23.232;2023-07-02T08:44:09;18.05;;;7.15;;
33696;SDS011;20031;43.416;23.232;2023-07-02T08:46:35;13.32;;;6.43;;
33696;SDS011;20031;43.416;23.232;2023-07-02T08:49:01;19.90;;;6.47;;
33696;SDS011;20031;43.416;23.232;2023-07-02T08:51:26;13.23;;;6.20;;
33696;SDS011;20031;43.416;23.232;2023-07-02T08:53:52;15.68;;;6.63;;
33696;SDS011;20031;43.416;23.232;2023-07-02T08:56:17;10.98;;;5.78;;
33696;SDS011;20031;43.416;23.232;2023-07-02T08:58:43;11.30;;;6.57;;
33696;SDS011;20031;43.416;23.232;2023-07-02T09:01:10;10.52;;;6.22;;
33696;SDS011;20031;43.416;23.232;2023-07-02T09:03:37;10.77;;;6.15;;
33696;SDS011;20031;43.416;23.232;2023-07-02T09:06:07;10.18;;;5.50;;
33696;SDS011;20031;43.416;23.232;2023-07-02T09:08:33;10.77;;;6.07;;
33696;SDS011;20031;43.416;23.232;2023-07-02T09:13:41;16.45;;;6.40;;
33696;SDS011;20031;43.416;23.232;2023-07-02T09:16:08;11.75;;;5.95;;
33696;SDS011;20031;43.416;23.232;2023-07-02T09:18:45;9.07;;;5.57;;
33696;SDS011;20031;43.416;23.232;2023-07-02T09:21:25;10.77;;;5.95;;
33696;SDS011;20031;43.416;23.232;2023-07-02T09:23:51;13.45;;;6.28;;
33696;SDS011;20031;43.416;23.232;2023-07-02T09:26:22;16.13;;;6.90;;
33696;SDS011;20031;43.416;23.232;2023-07-02T09:28:48;12.20;;;6.88;;
33696;SDS011;20031;43.416;23.232;2023-07-02T09:31:14;10.68;;;6.57;;
33696;SDS011;20031;43.416;23.232;2023-07-02T09:33:39;15.98;;;6.95;;
33696;SDS011;20031;43.416;23.232;2023-07-02T09:36:04;14.10;;;6.70;;
33696;SDS011;20031;43.416;23.232;2023-07-02T09:38:30;13.40;;;7.00;;
33696;SDS011;20031;43.416;23.232;2023-07-02T09:40:56;13.65;;;7.20;;
33696;SDS011;20031;43.416;23.232;2023-07-02T09:43:22;17.88;;;7.13;;
33696;SDS011;20031;43.416;23.232;2023-07-02T09:45:50;12.43;;;6.95;;
33696;SDS011;20031;43.416;23.232;2023-07-02T09:48:17;11.52;;;6.55;;
33696;SDS011;20031;43.416;23.232;2023-07-02T09:50:49;13.07;;;6.50;;
33696;SDS011;20031;43.416;23.232;2023-07-02T09:53:16;12.93;;;6.72;;
33696;SDS011;20031;43.416;23.232;2023-07-02T09:55:42;11.65;;;6.55;;
33696;SDS011;20031;43.416;23.232;2023-07-02T09:58:08;9.70;;;6.35;;
33696;SDS011;20031;43.416;23.232;2023-07-02T10:00:34;11.57;;;6.75;;
33696;SDS011;20031;43.416;23.232;2023-07-02T10:02:59;12.85;;;6.50;;
33696;SDS011;20031;43.416;23.232;2023-07-02T10:05:26;9.32;;;5.90;;
33696;SDS011;20031;43.416;23.232;2023-07-02T10:07:51;15.63;;;6.28;;
33696;SDS011;20031;43.416;23.232;2023-07-02T10:10:27;11.35;;;6.28;;
33696;SDS011;20031;43.416;23.232;2023-07-02T10:12:54;15.25;;;7.22;;
33696;SDS011;20031;43.416;23.232;2023-07-02T10:15:26;13.50;;;6.28;;
33696;SDS011;20031;43.416;23.232;2023-07-02T10:17:58;14.35;;;5.90;;
33696;SDS011;20031;43.416;23.232;2023-07-02T10:23:19;10.27;;;5.65;;
33696;SDS011;20031;43.416;23.232;2023-07-02T10:25:45;14.57;;;6.10;;
33696;SDS011;20031;43.416;23.232;2023-07-02T10:28:17;8.85;;;5.95;;
33696;SDS011;20031;43.416;23.232;2023-07-02T10:30:47;9.20;;;5.75;;
33696;SDS011;20031;43.416;23.232;2023-07-02T10:33:14;11.93;;;5.80;;
33696;SDS011;20031;43.416;23.232;2023-07-02T10:35:39;12.02;;;5.85;;
33696;SDS011;20031;43.416;23.232;2023-07-02T10:38:13;11.10;;;6.00;;
33696;SDS011;20031;43.416;23.232;2023-07-02T10:40:42;8.63;;;6.10;;
33696;SDS011;20031;43.416;23.232;2023-07-02T10:43:08;12.40;;;6.40;;
33696;SDS011;20031;43.416;23.232;2023-07-02T10:45:34;11.10;;;6.15;;
33696;SDS011;20031;43.416;23.232;2023-07-02T10:48:09;12.25;;;6.95;;
33696;SDS011;20031;43.416;23.232;2023-07-02T10:50:35;12.30;;;7.60;;
33696;SDS011;20031;43.416;23.232;2023-07-02T10:53:01;11.75;;;7.18;;
33696;SDS011;20031;43.416;23.232;2023-07-02T10:55:28;13.55;;;6.95;;
33696;SDS011;20031;43.416;23.232;2023-07-02T10:58:06;13.73;;;6.72;;
33696;SDS011;20031;43.416;23.232;2023-07-02T11:00:33;19.48;;;7.25;;
33696;SDS011;20031;43.416;23.232;2023-07-02T11:03:17;12.32;;;7.20;;
33696;SDS011;20031;43.416;23.232;2023-07-02T11:05:44;17.52;;;7.88;;
33696;SDS011;20031;43.416;23.232;2023-07-02T11:08:10;16.73;;;7.07;;
33696;SDS011;20031;43.416;23.232;2023-07-02T11:10:36;21.45;;;7.93;;
33696;SDS011;20031;43.416;23.232;2023-07-02T11:13:17;27.50;;;8.82;;
33696;SDS011;20031;43.416;23.232;2023-07-02T11:15:44;18.63;;;7.72;;
33696;SDS011;20031;43.416;23.232;2023-07-02T11:18:13;14.85;;;7.40;;
33696;SDS011;20031;43.416;23.232;2023-07-02T11:20:41;14.43;;;6.22;;
33696;SDS011;20031;43.416;23.232;2023-07-02T11:23:22;11.05;;;6.57;;
33696;SDS011;20031;43.416;23.232;2023-07-02T11:28:22;12.00;;;6.30;;
33696;SDS011;20031;43.416;23.232;2023-07-02T11:30:48;12.55;;;6.03;;
33696;SDS011;20031;43.416;23.232;2023-07-02T11:33:13;9.50;;;6.70;;
33696;SDS011;20031;43.416;23.232;2023-07-02T11:35:38;12.65;;;6.78;;
33696;SDS011;20031;43.416;23.232;2023-07-02T11:38:04;14.02;;;6.38;;
33696;SDS011;20031;43.416;23.232;2023-07-02T11:40:30;9.93;;;6.57;;
33696;SDS011;20031;43.416;23.232;2023-07-02T11:42:55;10.23;;;6.82;;
33696;SDS011;20031;43.416;23.232;2023-07-02T11:45:20;11.50;;;6.90;;
33696;SDS011;20031;43.416;23.232;2023-07-02T11:47:46;18.02;;;6.75;;
33696;SDS011;20031;43.416;23.232;2023-07-02T11:50:11;11.70;;;6.50;;
33696;SDS011;20031;43.416;23.232;2023-07-02T11:52:37;15.57;;;6.30;;
33696;SDS011;20031;43.416;23.232;2023-07-02T11:55:03;16.23;;;6.70;;
33696;SDS011;20031;43.416;23.232;2023-07-02T11:57:29;16.50;;;6.60;;
33696;SDS011;20031;43.416;23.232;2023-07-02T11:59:54;14.30;;;6.70;;
33696;SDS011;20031;43.416;23.232;2023-07-02T12:02:20;10.82;;;6.53;;
33696;SDS011;20031;43.416;23.232;2023-07-02T12:04:45;9.40;;;6.20;;
33696;SDS011;20031;43.416;23.232;2023-07-02T12:07:11;12.73;;;6.55;;
33696;SDS011;20031;43.416;23.232;2023-07-02T12:09:38;13.00;;;6.80;;
33696;SDS011;20031;43.416;23.232;2023-07-02T12:12:04;10.88;;;6.38;;
33696;SDS011;20031;43.416;23.232;2023-07-02T12:14:29;11.93;;;6.15;;
33696;SDS011;20031;43.416;23.232;2023-07-02T12:16:55;10.90;;;6.50;;
33696;SDS011;20031;43.416;23.232;2023-07-02T12:19:20;11.93;;;6.90;;
33696;SDS011;20031;43.416;23.232;2023-07-02T12:21:46;12.55;;;7.20;;
33696;SDS011;20031;43.416;23.232;2023-07-02T12:24:11;9.10;;;6.57;;
33696;SDS011;20031;43.416;23.232;2023-07-02T12:26:37;12.68;;;6.88;;
33696;SDS011;20031;43.416;23.232;2023-07-02T12:29:04;12.05;;;6.28;;
33696;SDS011;20031;43.416;23.232;2023-07-02T12:31:30;11.68;;;6.32;;
33696;SDS011;20031;43.416;23.232;2023-07-02T12:33:55;12.13;;;6.38;;
33696;SDS011;20031;43.416;23.232;2023-07-02T12:36:21;11.48;;;6.40;;
33696;SDS011;20031;43.416;23.232;2023-07-02T12:38:46;14.40;;;7.25;;
33696;SDS011;20031;43.416;23.232;2023-07-02T12:41:12;10.63;;;6.75;;
33696;SDS011;20031;43.416;23.232;2023-07-02T12:43:37;10.15;;;6.40;;
33696;SDS011;20031;43.416;23.232;2023-07-02T12:46:03;10.70;;;6.10;;
33696;SDS011;20031;43.416;23.232;2023-07-02T12:48:28;11.80;;;5.93;;
33696;SDS011;20031;43.416;23.232;2023-07-02T12:50:54;10.00;;;6.00;;
33696;SDS011;20031;43.416;23.232;2023-07-02T12:53:21;8.85;;;5.80;;
33696;SDS011;20031;43.416;23.232;2023-07-02T12:55:46;11.60;;;6.13;;
33696;SDS011;20031;43.416;23.232;2023-07-02T12:58:12;9.25;;;6.00;;
33696;SDS011;20031;43.416;23.232;2023-07-02T13:00:37;8.30;;;6.10;;
33696;SDS011;20031;43.416;23.232;2023-07-02T13:03:03;13.50;;;7.03;;
33696;SDS011;20031;43.416;23.232;2023-07-02T13:05:28;10.90;;;6.32;;
33696;SDS011;20031;43.416;23.232;2023-07-02T13:07:53;9.95;;;5.97;;
33696;SDS011;20031;43.416;23.232;2023-07-02T13:10:19;14.32;;;6.78;;
33696;SDS011;20031;43.416;23.232;2023-07-02T13:12:44;13.40;;;6.32;;
33696;SDS011;20031;43.416;23.232;2023-07-02T13:15:10;14.85;;;7.60;;
33696;SDS011;20031;43.416;23.232;2023-07-02T13:17:37;11.65;;;6.55;;
33696;SDS011;20031;43.416;23.232;2023-07-02T13:20:02;10.73;;;6.38;;
33696;SDS011;20031;43.416;23.232;2023-07-02T13:22:29;13.50;;;6.53;;
33696;SDS011;20031;43.416;23.232;2023-07-02T13:24:54;9.40;;;6.47;;
33696;SDS011;20031;43.416;23.232;2023-07-02T13:27:20;11.05;;;6.45;;
33696;SDS011;20031;43.416;23.232;2023-07-02T13:29:45;12.15;;;6.32;;
33696;SDS011;20031;43.416;23.232;2023-07-02T13:32:11;15.55;;;6.68;;
33696;SDS011;20031;43.416;23.232;2023-07-02T13:34:36;8.63;;;5.95;;
33696;SDS011;20031;43.416;23.232;2023-07-02T13:37:02;10.57;;;6.20;;
33696;SDS011;20031;43.416;23.232;2023-07-02T13:39:28;10.57;;;5.82;;
33696;SDS011;20031;43.416;23.232;2023-07-02T13:41:54;11.40;;;6.13;;
33696;SDS011;20031;43.416;23.232;2023-07-02T13:44:20;10.98;;;5.97;;
33696;SDS011;20031;43.416;23.232;2023-07-02T13:46:46;11.98;;;5.95;;
33696;SDS011;20031;43.416;23.232;2023-07-02T13:49:12;11.75;;;5.80;;
33696;SDS011;20031;43.416;23.232;2023-07-02T13:51:37;10.77;;;6.15;;
33696;SDS011;20031;43.416;23.232;2023-07-02T13:54:03;9.45;;;6.35;;
33696;SDS011;20031;43.416;23.232;2023-07-02T13:56:28;11.20;;;6.20;;
33696;SDS011;20031;43.416;23.232;2023-07-02T14:01:23;9.45;;;5.47;;
33696;SDS011;20031;43.416;23.232;2023-07-02T14:03:49;11.32;;;5.75;;
33696;SDS011;20031;43.416;23.232;2023-07-02T14:06:15;13.40;;;5.50;;
33696;SDS011;20031;43.416;23.232;2023-07-02T14:08:40;12.15;;;5.60;;
33696;SDS011;20031;43.416;23.232;2023-07-02T14:11:06;10.85;;;6.13;;
33696;SDS011;20031;43.416;23.232;2023-07-02T14:13:32;10.40;;;6.32;;
33696;SDS011;20031;43.416;23.232;2023-07-02T14:15:58;9.20;;;5.65;;
33696;SDS011;20031;43.416;23.232;2023-07-02T14:18:24;9.23;;;6.05;;
33696;SDS011;20031;43.416;23.232;2023-07-02T14:20:49;11.20;;;5.50;;
33696;SDS011;20031;43.416;23.232;2023-07-02T14:23:15;14.20;;;5.63;;
33696;SDS011;20031;43.416;23.232;2023-07-02T14:25:40;11.85;;;5.35;;
33696;SDS011;20031;43.416;23.232;2023-07-02T14:28:06;6.88;;;5.18;;
33696;SDS011;20031;43.416;23.232;2023-07-02T14:30:32;14.02;;;5.63;;
33696;SDS011;20031;43.416;23.232;2023-07-02T14:32:57;9.57;;;5.93;;